createdAt,value
2022-08-14T00:02:31.518Z,20.60
2022-08-14T00:07:35.579Z,20.50
2022-08-14T00:12:56.656Z,20.40
2022-08-14T00:17:59.721Z,20.20
2022-08-14T00:23:16.431Z,20.20
2022-08-14T00:28:22.018Z,20.20
2022-08-14T00:33:51.857Z,20.10
2022-08-14T00:38:52.915Z,20.20
2022-08-14T00:43:55.332Z,20.00
2022-08-14T00:48:59.750Z,20.10
2022-08-14T00:54:03.102Z,20.00
2022-08-14T00:59:07.167Z,20.00
2022-08-14T01:04:51.259Z,20.00
2022-08-14T01:09:37.637Z,20.10
2022-08-14T01:14:41.662Z,20.10
2022-08-14T01:20:02.565Z,20.10
2022-08-14T01:25:08.335Z,20.10
2022-08-14T01:30:11.297Z,20.10
2022-08-14T01:36:04.338Z,20.00
2022-08-14T01:40:42.173Z,20.00
2022-08-14T01:45:49.211Z,19.90
2022-08-14T01:51:02.794Z,19.80
2022-08-14T01:56:12.197Z,19.80
2022-08-14T02:01:20.970Z,19.70
2022-08-14T02:06:32.406Z,19.70
2022-08-14T02:11:37.057Z,19.60
2022-08-14T02:16:42.610Z,19.50
2022-08-14T02:21:50.401Z,19.40
2022-08-14T02:28:19.002Z,19.40
2022-08-14T02:32:30.010Z,19.40
2022-08-14T02:37:47.004Z,19.30
2022-08-14T02:42:55.327Z,19.20
2022-08-14T02:48:03.525Z,19.20
2022-08-14T02:53:06.139Z,19.20
2022-08-14T02:58:11.099Z,19.10
2022-08-14T03:03:32.053Z,19.10
2022-08-14T03:08:45.876Z,19.10
2022-08-14T03:13:52.033Z,19.00
2022-08-14T03:18:58.344Z,18.90
2022-08-14T03:24:21.326Z,18.90
2022-08-14T03:29:29.565Z,18.90
2022-08-14T03:34:47.887Z,18.90
2022-08-14T03:39:55.356Z,18.80
2022-08-14T03:45:25.185Z,18.80
2022-08-14T03:50:27.560Z,18.90
2022-08-14T03:55:33.639Z,18.80
2022-08-14T04:00:40.690Z,18.90
2022-08-14T04:05:48.964Z,18.90
2022-08-14T04:10:54.688Z,18.90
2022-08-14T04:16:01.945Z,18.90
2022-08-14T04:21:08.267Z,19.00
2022-08-14T04:26:27.328Z,19.00
2022-08-14T04:33:00.331Z,19.10
2022-08-14T04:37:24.614Z,19.10
2022-08-14T04:42:47.631Z,19.10
2022-08-14T04:48:13.098Z,19.20
2022-08-14T04:53:23.287Z,19.30
2022-08-14T04:58:32.989Z,19.50
2022-08-14T05:03:38.370Z,19.60
2022-08-14T05:08:56.629Z,19.60
2022-08-14T05:14:33.084Z,19.70
2022-08-14T05:19:29.560Z,19.70
2022-08-14T05:24:32.294Z,19.70
2022-08-14T05:29:35.295Z,19.80
2022-08-14T05:34:37.607Z,19.90
2022-08-14T05:39:41.708Z,19.90
2022-08-14T05:44:46.121Z,20.20
2022-08-14T05:49:48.637Z,20.30
2022-08-14T05:54:51.037Z,20.50
2022-08-14T05:59:53.381Z,20.50
2022-08-14T06:04:58.843Z,20.70
2022-08-14T06:10:03.929Z,20.70
2022-08-14T06:15:08.745Z,20.90
2022-08-14T06:20:12.862Z,21.00
2022-08-14T06:25:16.365Z,21.10
2022-08-14T06:30:45.654Z,21.00
2022-08-14T06:35:49.963Z,21.10
2022-08-14T06:40:53.337Z,21.10
2022-08-14T06:45:57.107Z,21.10
2022-08-14T06:50:59.840Z,21.30
2022-08-14T06:56:03.142Z,21.20
2022-08-14T07:01:27.601Z,21.30
2022-08-14T07:06:46.367Z,21.50
2022-08-14T07:11:50.977Z,21.60
2022-08-14T07:16:53.434Z,21.70
2022-08-14T07:21:56.813Z,21.70
2022-08-14T07:27:01.906Z,21.90
2022-08-14T07:32:04.715Z,22.00
2022-08-14T07:37:07.099Z,22.30
2022-08-14T07:42:09.529Z,22.50
2022-08-14T07:47:12.147Z,22.70
2022-08-14T07:52:14.521Z,23.00
2022-08-14T07:57:25.115Z,23.30
2022-08-14T08:02:31.311Z,23.60
2022-08-14T08:07:39.208Z,24.30
2022-08-14T08:12:43.534Z,24.50
2022-08-14T08:17:53.769Z,25.10
2022-08-14T08:23:06.672Z,24.90
2022-08-14T08:28:21.836Z,25.00
2022-08-14T08:33:31.777Z,25.10
2022-08-14T08:39:17.744Z,25.50
2022-08-14T08:44:05.595Z,25.30
2022-08-14T08:49:08.632Z,25.90
2022-08-14T08:54:18.567Z,26.10
2022-08-14T08:59:31.065Z,26.60
2022-08-14T09:04:45.726Z,27.10
2022-08-14T09:10:00.139Z,27.40
2022-08-14T09:15:12.153Z,27.50
2022-08-14T09:20:25.989Z,27.60
2022-08-14T09:25:58.899Z,27.80
2022-08-14T09:30:57.788Z,27.80
2022-08-14T09:36:12.655Z,28.10
2022-08-14T09:42:21.164Z,28.10
2022-08-14T09:46:54.412Z,27.90
2022-08-14T09:52:32.997Z,27.70
2022-08-14T09:57:34.798Z,27.50
2022-08-14T10:02:37.414Z,27.70
2022-08-14T10:07:53.982Z,27.80
2022-08-14T10:13:05.479Z,28.20
2022-08-14T10:18:17.516Z,29.00
2022-08-14T10:23:23.077Z,29.70
2022-08-14T10:29:03.717Z,29.80
2022-08-14T10:34:12.809Z,29.60
2022-08-14T10:39:22.530Z,29.30
2022-08-14T10:44:39.677Z,29.70
2022-08-14T10:49:53.187Z,28.90
2022-08-14T10:55:14.014Z,28.70
2022-08-14T11:00:29.964Z,28.80
2022-08-14T11:05:44.477Z,28.90
2022-08-14T11:10:57.232Z,29.10
2022-08-14T11:16:02.307Z,29.10
2022-08-14T11:21:10.490Z,28.90
2022-08-14T11:26:16.615Z,28.60
2022-08-14T11:31:24.114Z,28.70
2022-08-14T11:36:57.022Z,29.40
2022-08-14T11:41:55.885Z,29.50
2022-08-14T11:46:58.604Z,29.60
2022-08-14T11:52:00.979Z,29.40
2022-08-14T11:57:05.918Z,29.40
2022-08-14T12:02:36.030Z,29.10
2022-08-14T12:07:49.203Z,28.60
2022-08-14T12:12:56.470Z,28.70
2022-08-14T12:18:01.186Z,28.60
2022-08-14T12:23:07.083Z,28.60
2022-08-14T12:28:33.387Z,28.90
2022-08-14T12:33:34.653Z,28.50
2022-08-14T12:38:45.048Z,28.30
2022-08-14T12:43:52.051Z,28.60
2022-08-14T12:48:55.569Z,29.00
2022-08-14T12:54:00.026Z,29.10
2022-08-14T12:59:04.696Z,29.70
2022-08-14T13:04:13.519Z,29.90
2022-08-14T13:09:17.600Z,29.80
2022-08-14T13:14:29.800Z,29.90
2022-08-14T13:19:33.491Z,30.10
2022-08-14T13:24:38.846Z,29.70
2022-08-14T13:29:43.801Z,30.00
2022-08-14T13:34:49.942Z,30.10
2022-08-14T13:39:57.494Z,30.00
2022-08-14T13:45:02.738Z,29.80
2022-08-14T13:50:09.320Z,29.40
2022-08-14T13:55:13.510Z,29.40
2022-08-14T14:00:21.726Z,29.30
2022-08-14T14:05:53.405Z,29.20
2022-08-14T14:10:56.649Z,29.20
2022-08-14T14:16:04.689Z,29.10
2022-08-14T14:21:09.174Z,29.20
2022-08-14T14:26:23.296Z,29.10
2022-08-14T14:31:30.081Z,29.10
2022-08-14T14:36:33.333Z,28.50
2022-08-14T14:41:43.329Z,28.20
2022-08-14T14:46:53.030Z,28.20
2022-08-14T14:51:58.845Z,28.10
2022-08-14T14:57:02.288Z,28.10
2022-08-14T15:02:09.139Z,28.00
2022-08-14T15:07:13.029Z,28.00
2022-08-14T15:12:34.149Z,28.20
2022-08-14T15:17:41.142Z,28.40
2022-08-14T15:22:51.202Z,28.30
2022-08-14T15:27:54.955Z,28.20
2022-08-14T15:32:57.379Z,28.50
2022-08-14T15:38:07.826Z,28.70
2022-08-14T15:43:13.055Z,28.50
2022-08-14T15:48:22.135Z,28.40
2022-08-14T15:53:31.545Z,28.30
2022-08-14T15:58:34.727Z,28.10
2022-08-14T16:03:40.932Z,27.90
2022-08-14T16:08:58.791Z,27.90
2022-08-14T16:14:02.548Z,27.50
2022-08-14T16:19:11.052Z,27.40
2022-08-14T16:24:59.861Z,27.20
2022-08-14T16:29:58.910Z,27.00
2022-08-14T16:35:01.385Z,26.80
2022-08-14T16:40:04.338Z,26.70
2022-08-14T16:45:09.682Z,26.60
2022-08-14T16:50:12.279Z,26.70
2022-08-14T16:55:17.931Z,26.80
2022-08-14T17:00:29.964Z,26.70
2022-08-14T17:05:43.160Z,26.60
2022-08-14T17:10:52.181Z,26.50
2022-08-14T17:16:25.244Z,26.20
2022-08-14T17:21:37.596Z,26.00
2022-08-14T17:26:55.145Z,25.90
2022-08-14T17:32:28.242Z,25.70
2022-08-14T17:37:44.822Z,25.70
2022-08-14T17:42:51.443Z,25.60
2022-08-14T17:47:59.538Z,25.60
2022-08-14T17:53:03.102Z,25.50
2022-08-14T17:58:21.678Z,25.50
2022-08-14T18:03:50.098Z,25.30
2022-08-14T18:08:55.301Z,25.30
2022-08-14T18:14:00.662Z,25.20
2022-08-14T18:19:04.501Z,25.20
2022-08-14T18:24:20.162Z,25.00
2022-08-14T18:29:32.025Z,24.90
2022-08-14T18:34:45.254Z,24.70
2022-08-14T18:40:02.906Z,24.60
2022-08-14T18:45:12.642Z,24.40
2022-08-14T18:50:31.519Z,24.30
2022-08-14T18:55:34.206Z,24.20
2022-08-14T19:00:51.307Z,24.20
2022-08-14T19:05:54.850Z,24.20
2022-08-14T19:11:04.097Z,24.10
2022-08-14T19:16:07.636Z,24.00
2022-08-14T19:21:34.432Z,23.90
2022-08-14T19:26:54.740Z,23.70
2022-08-14T19:31:59.349Z,23.70
2022-08-14T19:37:06.053Z,23.60
2022-08-14T19:42:28.275Z,23.50
2022-08-14T19:47:53.859Z,23.40
2022-08-14T19:53:17.339Z,23.30
2022-08-14T19:58:27.962Z,23.20
2022-08-14T20:03:59.856Z,23.00
2022-08-14T20:11:08.343Z,22.90
2022-08-14T20:14:30.714Z,22.90
2022-08-14T20:19:38.093Z,22.80
2022-08-14T20:24:45.261Z,22.60
2022-08-14T20:30:28.852Z,22.60
2022-08-14T20:35:44.386Z,22.40
2022-08-14T20:40:56.065Z,22.40
2022-08-14T20:45:59.233Z,22.30
2022-08-14T20:51:20.482Z,22.20
2022-08-14T20:56:28.638Z,22.00
2022-08-14T21:01:35.829Z,22.00
2022-08-14T21:07:23.557Z,21.90
2022-08-14T21:12:03.869Z,21.90
2022-08-14T21:17:06.229Z,21.70
2022-08-14T21:22:09.871Z,21.70
2022-08-14T21:27:20.242Z,21.60
2022-08-14T21:32:36.523Z,21.30
2022-08-14T21:37:53.790Z,21.20
2022-08-14T21:42:56.328Z,21.20
2022-08-14T21:47:59.160Z,21.30
2022-08-14T21:53:04.014Z,21.20
2022-08-14T21:58:52.203Z,21.10
2022-08-14T22:03:35.500Z,21.10
2022-08-14T22:08:39.443Z,21.00
2022-08-14T22:13:48.977Z,21.00
2022-08-14T22:18:52.318Z,20.90
2022-08-14T22:23:54.793Z,20.80
2022-08-14T22:28:58.820Z,20.80
2022-08-14T22:34:02.450Z,20.90
2022-08-14T22:39:06.509Z,20.80
2022-08-14T22:44:35.492Z,20.70
2022-08-14T22:50:32.070Z,20.70
2022-08-14T22:55:02.057Z,20.70
2022-08-14T23:00:25.385Z,20.70
2022-08-14T23:05:39.882Z,20.50
2022-08-14T23:10:54.149Z,20.50
2022-08-14T23:15:56.951Z,20.40
2022-08-14T23:20:59.721Z,20.40
2022-08-14T23:26:47.315Z,20.30
2022-08-14T23:31:35.622Z,20.40
2022-08-14T23:36:54.050Z,20.30
2022-08-14T23:41:58.123Z,20.30
2022-08-14T23:47:11.922Z,20.20
2022-08-14T23:52:55.834Z,20.20
2022-08-14T23:57:57.826Z,20.20
